Time;durP1;ratioP1;P1;durP2;ratioP2;P2;SDS_P1;SDS_P2;PMS_P1;PMS_P2;Temp;Humidity;BMP_temperature;BMP_pressure;BME280_temperature;BME280_humidity;BME280_pressure;Samples;Min_cycle;Max_cycle;Signal;HPM_P1;HPM_P2
2022/11/01 00:00:18;;;;;;;8.52;3.70;;;;;;;;;;5005436;28;20080;-61
2022/11/01 00:02:43;;;;;;;9.88;3.83;;;;;;;;;;5008987;28;20033;-61
2022/11/01 00:05:09;;;;;;;10.10;3.40;;;;;;;;;;5004308;28;20105;-61
2022/11/01 00:07:34;;;;;;;9.80;3.83;;;;;;;;;;4991671;28;20400;-60
2022/11/01 00:09:59;;;;;;;8.85;3.50;;;;;;;;;;5016663;28;20171;-61
2022/11/01 00:12:25;;;;;;;10.63;3.58;;;;;;;;;;4993266;28;20030;-61
2022/11/01 00:14:50;;;;;;;12.43;4.05;;;;;;;;;;4999804;28;20125;-60
2022/11/01 00:17:16;;;;;;;12.90;3.70;;;;;;;;;;4991192;28;20048;-60
2022/11/01 00:19:41;;;;;;;8.57;3.47;;;;;;;;;;5013361;28;20041;-60
2022/11/01 00:22:07;;;;;;;11.27;4.07;;;;;;;;;;4999059;28;20137;-61
2022/11/01 00:24:32;;;;;;;11.15;3.78;;;;;;;;;;4999895;28;20446;-60
2022/11/01 00:26:58;;;;;;;13.77;3.58;;;;;;;;;;4999057;28;20410;-60
2022/11/01 00:29:24;;;;;;;12.35;3.58;;;;;;;;;;5018323;28;20043;-61
2022/11/01 00:31:49;;;;;;;13.02;3.47;;;;;;;;;;5000496;28;20034;-60
2022/11/01 00:34:15;;;;;;;11.25;4.03;;;;;;;;;;5010758;28;20044;-61
2022/11/01 00:36:41;;;;;;;8.18;3.90;;;;;;;;;;5004942;28;20042;-60
2022/11/01 00:39:06;;;;;;;11.35;3.80;;;;;;;;;;4991514;28;20060;-61
2022/11/01 00:41:32;;;;;;;10.88;3.67;;;;;;;;;;4994695;28;20030;-60
2022/11/01 00:43:58;;;;;;;9.93;3.47;;;;;;;;;;5006678;28;20425;-60
2022/11/01 00:46:23;;;;;;;9.43;3.55;;;;;;;;;;5006072;28;20044;-60
2022/11/01 00:48:49;;;;;;;11.25;3.83;;;;;;;;;;5010401;28;20438;-61
2022/11/01 00:51:14;;;;;;;13.20;4.00;;;;;;;;;;5013219;28;20457;-60
2022/11/01 00:53:39;;;;;;;8.98;3.40;;;;;;;;;;5003209;28;20033;-60
2022/11/01 00:56:06;;;;;;;9.77;3.70;;;;;;;;;;5012535;28;20034;-62
2022/11/01 00:58:32;;;;;;;8.70;3.40;;;;;;;;;;5015973;28;20036;-61
2022/11/01 01:00:58;;;;;;;10.57;3.70;;;;;;;;;;5027148;28;20120;-60
2022/11/01 01:03:23;;;;;;;14.70;3.72;;;;;;;;;;5012852;28;20179;-60
2022/11/01 01:05:50;;;;;;;13.07;3.60;;;;;;;;;;5018363;28;20059;-60
2022/11/01 01:08:16;;;;;;;13.23;4.03;;;;;;;;;;5013072;28;20030;-61
2022/11/01 01:10:41;;;;;;;10.02;3.70;;;;;;;;;;5035103;28;20164;-62
2022/11/01 01:13:06;;;;;;;12.80;3.90;;;;;;;;;;5032298;28;20034;-62
2022/11/01 01:15:32;;;;;;;9.07;3.70;;;;;;;;;;5034122;28;20025;-61
2022/11/01 01:17:57;;;;;;;9.88;3.58;;;;;;;;;;5031213;28;20041;-61
2022/11/01 01:20:23;;;;;;;11.25;4.53;;;;;;;;;;5012417;28;20053;-61
2022/11/01 01:22:48;;;;;;;10.45;3.65;;;;;;;;;;5012258;28;20038;-61
2022/11/01 01:25:14;;;;;;;11.20;3.70;;;;;;;;;;5012258;28;20447;-60
2022/11/01 01:27:40;;;;;;;10.88;4.10;;;;;;;;;;5009319;28;20034;-60
2022/11/01 01:30:09;;;;;;;9.30;3.90;;;;;;;;;;5027694;28;20508;-60
2022/11/01 01:32:34;;;;;;;13.85;3.80;;;;;;;;;;5007025;28;20149;-61
2022/11/01 01:35:00;;;;;;;9.43;3.85;;;;;;;;;;5020513;28;20230;-60
2022/11/01 01:37:26;;;;;;;9.52;3.67;;;;;;;;;;5012471;28;20364;-60
2022/11/01 01:39:51;;;;;;;11.68;3.60;;;;;;;;;;5008228;28;20435;-61
2022/11/01 01:42:27;;;;;;;8.85;3.45;;;;;;;;;;4997366;28;20517;-61
2022/11/01 01:44:55;;;;;;;11.57;3.92;;;;;;;;;;5002681;28;20125;-60
2022/11/01 01:47:23;;;;;;;11.07;4.00;;;;;;;;;;5003431;28;20068;-61
2022/11/01 01:49:53;;;;;;;9.00;4.00;;;;;;;;;;5011523;28;20109;-60
2022/11/01 01:52:19;;;;;;;9.95;3.67;;;;;;;;;;4992983;28;20077;-60
2022/11/01 01:54:44;;;;;;;8.65;3.80;;;;;;;;;;4999868;28;20034;-60
2022/11/01 01:57:11;;;;;;;7.38;3.55;;;;;;;;;;5013100;28;20090;-61
2022/11/01 01:59:37;;;;;;;13.27;3.60;;;;;;;;;;4998308;28;20034;-60
2022/11/01 02:02:03;;;;;;;11.18;3.70;;;;;;;;;;5016275;28;20033;-60
2022/11/01 02:04:45;;;;;;;8.38;3.55;;;;;;;;;;5029716;28;20502;-61
2022/11/01 02:07:11;;;;;;;10.88;3.63;;;;;;;;;;5007857;28;20092;-61
2022/11/01 02:09:37;;;;;;;10.75;4.20;;;;;;;;;;5010414;28;20030;-60
2022/11/01 02:12:03;;;;;;;10.52;3.83;;;;;;;;;;5004885;28;20026;-60
2022/11/01 02:14:29;;;;;;;10.18;3.75;;;;;;;;;;5007045;28;20041;-60
2022/11/01 02:17:02;;;;;;;9.25;3.70;;;;;;;;;;5016235;28;20026;-60
2022/11/01 02:19:40;;;;;;;8.57;4.00;;;;;;;;;;5029261;28;20033;-60
2022/11/01 02:22:42;;;;;;;10.80;4.00;;;;;;;;;;5006710;28;20022;-60
2022/11/01 02:25:38;;;;;;;7.18;3.95;;;;;;;;;;4994739;28;20042;-61
2022/11/01 02:28:32;;;;;;;10.93;4.28;;;;;;;;;;5019507;28;20091;-61
2022/11/01 02:31:16;;;;;;;9.00;3.60;;;;;;;;;;4993219;28;20590;-60
2022/11/01 02:33:58;;;;;;;12.73;4.03;;;;;;;;;;5029720;28;20474;-63
2022/11/01 02:36:27;;;;;;;11.30;3.72;;;;;;;;;;4999930;28;20030;-61
2022/11/01 02:38:59;;;;;;;8.55;4.30;;;;;;;;;;5017324;28;20037;-61
2022/11/01 02:41:33;;;;;;;9.07;3.72;;;;;;;;;;5003584;28;20042;-61
2022/11/01 02:44:03;;;;;;;12.30;4.00;;;;;;;;;;5009410;28;20039;-61
2022/11/01 02:49:23;;;;;;;11.32;4.00;;;;;;;;;;5015881;28;20056;-60
2022/11/01 02:51:51;;;;;;;12.10;3.72;;;;;;;;;;4998614;28;20033;-61
2022/11/01 02:54:30;;;;;;;8.85;3.75;;;;;;;;;;5008983;28;20064;-61
2022/11/01 02:57:01;;;;;;;10.43;3.80;;;;;;;;;;5010526;28;20033;-60
2022/11/01 02:59:28;;;;;;;12.60;3.70;;;;;;;;;;5003361;28;20100;-61
2022/11/01 03:02:06;;;;;;;10.73;4.13;;;;;;;;;;4992818;28;20065;-60
2022/11/01 03:04:33;;;;;;;11.23;3.60;;;;;;;;;;5012913;28;20037;-60
2022/11/01 03:07:03;;;;;;;10.45;4.07;;;;;;;;;;5017111;28;20053;-62
2022/11/01 03:09:31;;;;;;;11.38;3.85;;;;;;;;;;5013897;28;20029;-60
2022/11/01 03:12:01;;;;;;;10.35;4.20;;;;;;;;;;4998724;28;20096;-60
2022/11/01 03:14:43;;;;;;;10.35;4.75;;;;;;;;;;5025699;28;20475;-61
2022/11/01 03:17:33;;;;;;;9.05;3.80;;;;;;;;;;5004326;28;20034;-61
2022/11/01 03:20:23;;;;;;;8.82;4.10;;;;;;;;;;5032374;28;20036;-61
2022/11/01 03:22:57;;;;;;;14.73;4.78;;;;;;;;;;5021213;28;20489;-61
2022/11/01 03:25:38;;;;;;;9.02;4.18;;;;;;;;;;4995920;28;20035;-60
2022/11/01 03:28:10;;;;;;;8.82;4.10;;;;;;;;;;5007137;28;20072;-61
2022/11/01 03:30:37;;;;;;;9.35;3.90;;;;;;;;;;5006076;28;20635;-62
2022/11/01 03:33:03;;;;;;;10.13;3.83;;;;;;;;;;4993798;28;20056;-60
2022/11/01 03:35:35;;;;;;;7.85;3.40;;;;;;;;;;5001742;28;20072;-60
2022/11/01 03:38:06;;;;;;;10.45;3.72;;;;;;;;;;4998283;28;20042;-61
2022/11/01 03:40:33;;;;;;;10.48;4.00;;;;;;;;;;4995946;28;20056;-61
2022/11/01 03:43:03;;;;;;;10.57;4.00;;;;;;;;;;5005570;28;20033;-60
2022/11/01 03:45:31;;;;;;;10.37;3.77;;;;;;;;;;5018830;28;20034;-61
2022/11/01 03:47:57;;;;;;;8.00;3.42;;;;;;;;;;5001884;28;20029;-61
2022/11/01 03:50:26;;;;;;;7.47;3.58;;;;;;;;;;5011051;28;20036;-62
2022/11/01 03:52:52;;;;;;;8.57;3.35;;;;;;;;;;5002331;28;20073;-62
2022/11/01 03:55:19;;;;;;;9.90;3.80;;;;;;;;;;5004444;28;20053;-62
2022/11/01 03:57:52;;;;;;;9.05;3.42;;;;;;;;;;5000895;28;20037;-62
2022/11/01 04:00:20;;;;;;;7.95;3.47;;;;;;;;;;4999543;28;20034;-62
2022/11/01 04:02:47;;;;;;;7.25;3.50;;;;;;;;;;5010558;28;20037;-61
2022/11/01 04:05:12;;;;;;;7.90;3.58;;;;;;;;;;5010960;28;20044;-61
2022/11/01 04:07:38;;;;;;;7.20;3.20;;;;;;;;;;5010914;28;20030;-61
2022/11/01 04:10:05;;;;;;;7.60;3.90;;;;;;;;;;5018197;28;20052;-61
2022/11/01 04:12:31;;;;;;;8.20;3.42;;;;;;;;;;5009217;28;20123;-61
2022/11/01 04:20:32;;;;;;;7.60;3.63;;;;;;;;;;5030774;28;20045;-61
2022/11/01 04:23:04;;;;;;;6.63;3.15;;;;;;;;;;5010635;28;20402;-61
2022/11/01 04:25:30;;;;;;;7.30;3.63;;;;;;;;;;5014926;28;20033;-61
2022/11/01 04:27:55;;;;;;;7.25;3.35;;;;;;;;;;5004081;28;20467;-61
2022/11/01 04:30:22;;;;;;;7.65;3.60;;;;;;;;;;5010284;28;20056;-61
2022/11/01 04:32:48;;;;;;;7.80;3.40;;;;;;;;;;5011368;28;20069;-61
2022/11/01 04:35:13;;;;;;;9.55;3.22;;;;;;;;;;5016244;28;20081;-61
2022/11/01 04:37:38;;;;;;;7.45;3.15;;;;;;;;;;5017324;28;20194;-61
2022/11/01 04:40:07;;;;;;;6.90;3.80;;;;;;;;;;5014820;28;20032;-61
2022/11/01 04:42:33;;;;;;;6.30;3.30;;;;;;;;;;5018384;28;20123;-61
2022/11/01 04:44:59;;;;;;;6.65;3.30;;;;;;;;;;4998899;28;20065;-61
2022/11/01 04:47:24;;;;;;;11.10;3.83;;;;;;;;;;5010953;28;20455;-61
2022/11/01 04:49:50;;;;;;;7.75;3.42;;;;;;;;;;4993863;28;20037;-60
2022/11/01 04:52:15;;;;;;;10.20;3.83;;;;;;;;;;5023814;28;20045;-61
2022/11/01 04:54:40;;;;;;;9.82;3.50;;;;;;;;;;5009222;28;20037;-61
2022/11/01 04:57:06;;;;;;;8.07;3.50;;;;;;;;;;5022670;28;20036;-61
2022/11/01 04:59:31;;;;;;;7.57;3.53;;;;;;;;;;5014280;28;20112;-60
2022/11/01 05:01:57;;;;;;;8.40;3.53;;;;;;;;;;5005979;28;20034;-60
2022/11/01 05:04:22;;;;;;;7.22;2.97;;;;;;;;;;5019668;28;20406;-61
2022/11/01 05:06:47;;;;;;;4.72;3.22;;;;;;;;;;5019603;28;20517;-60
2022/11/01 05:09:13;;;;;;;7.70;3.45;;;;;;;;;;5028537;28;20099;-61
2022/11/01 05:11:38;;;;;;;10.05;3.40;;;;;;;;;;5030146;28;20037;-60
2022/11/01 05:14:03;;;;;;;7.07;3.53;;;;;;;;;;5029802;28;20418;-61
2022/11/01 05:16:29;;;;;;;9.10;3.13;;;;;;;;;;5028463;28;20041;-62
2022/11/01 05:18:54;;;;;;;6.93;3.10;;;;;;;;;;5029637;28;20040;-61
2022/11/01 05:21:20;;;;;;;10.10;2.90;;;;;;;;;;5020273;28;20438;-60
2022/11/01 05:23:48;;;;;;;8.50;2.80;;;;;;;;;;5016620;28;20136;-60
2022/11/01 05:26:13;;;;;;;6.45;2.78;;;;;;;;;;5029146;28;20034;-61
2022/11/01 05:28:39;;;;;;;7.18;3.00;;;;;;;;;;5028158;28;20029;-60
2022/11/01 05:31:04;;;;;;;7.40;3.10;;;;;;;;;;5031047;28;20446;-61
2022/11/01 05:33:29;;;;;;;7.65;3.08;;;;;;;;;;5008495;28;20045;-61
2022/11/01 05:35:55;;;;;;;8.32;3.40;;;;;;;;;;5030546;28;20458;-61
2022/11/01 05:38:20;;;;;;;5.35;2.70;;;;;;;;;;5022100;28;20037;-61
2022/11/01 05:40:46;;;;;;;8.55;3.33;;;;;;;;;;5023670;28;20084;-61
2022/11/01 05:43:11;;;;;;;7.00;3.15;;;;;;;;;;5002966;28;20038;-62
2022/11/01 05:45:37;;;;;;;7.05;2.95;;;;;;;;;;5001695;28;20025;-61
2022/11/01 05:48:03;;;;;;;6.88;2.83;;;;;;;;;;5018424;28;20503;-62
2022/11/01 05:50:28;;;;;;;6.15;2.47;;;;;;;;;;5022556;28;20029;-63
2022/11/01 05:52:54;;;;;;;7.95;2.67;;;;;;;;;;5031767;28;20059;-65
2022/11/01 05:55:19;;;;;;;9.82;4.07;;;;;;;;;;5021934;28;20153;-65
2022/11/01 05:57:45;;;;;;;6.57;2.80;;;;;;;;;;5013495;28;20640;-65
2022/11/01 06:00:11;;;;;;;5.65;2.40;;;;;;;;;;5029561;28;20120;-63
2022/11/01 06:02:36;;;;;;;5.15;2.75;;;;;;;;;;5014397;28;20071;-64
2022/11/01 06:05:02;;;;;;;7.10;2.60;;;;;;;;;;5032930;28;20064;-64
2022/11/01 06:07:27;;;;;;;5.22;2.40;;;;;;;;;;5025188;28;20034;-64
2022/11/01 06:09:53;;;;;;;6.25;2.53;;;;;;;;;;5014037;28;20030;-66
2022/11/01 06:12:22;;;;;;;5.45;2.45;;;;;;;;;;5016560;28;20550;-66
2022/11/01 06:14:47;;;;;;;7.82;2.65;;;;;;;;;;5032873;28;20894;-64
2022/11/01 06:17:13;;;;;;;6.93;2.25;;;;;;;;;;5031446;28;20190;-65
2022/11/01 06:19:38;;;;;;;5.78;2.70;;;;;;;;;;5023951;28;20061;-64
2022/11/01 06:22:04;;;;;;;3.45;2.15;;;;;;;;;;5031050;28;20462;-64
2022/11/01 06:24:30;;;;;;;5.45;2.05;;;;;;;;;;5031968;28;20049;-65
2022/11/01 06:26:55;;;;;;;6.78;2.47;;;;;;;;;;5015400;28;20121;-63
2022/11/01 06:29:21;;;;;;;6.53;2.50;;;;;;;;;;5007377;28;20046;-63
2022/11/01 06:31:46;;;;;;;6.32;2.30;;;;;;;;;;5026818;28;20036;-65
2022/11/01 06:34:12;;;;;;;5.80;1.85;;;;;;;;;;5032079;28;20429;-65
2022/11/01 06:36:37;;;;;;;5.13;1.95;;;;;;;;;;5024247;28;20036;-65
2022/11/01 06:39:02;;;;;;;2.22;1.40;;;;;;;;;;5028357;28;20053;-65
2022/11/01 06:41:28;;;;;;;3.72;1.60;;;;;;;;;;5026515;28;20463;-65
2022/11/01 06:43:53;;;;;;;7.45;1.55;;;;;;;;;;5012867;28;20038;-65
2022/11/01 06:46:18;;;;;;;8.50;1.63;;;;;;;;;;5019405;28;20061;-64
2022/11/01 06:48:47;;;;;;;2.22;1.58;;;;;;;;;;5011658;28;20034;-64
2022/11/01 06:51:12;;;;;;;3.28;1.60;;;;;;;;;;5032221;28;20108;-65
2022/11/01 06:53:37;;;;;;;5.03;2.00;;;;;;;;;;5032335;28;20113;-65
2022/11/01 06:56:03;;;;;;;5.50;1.73;;;;;;;;;;5026946;28;20037;-65
2022/11/01 06:58:28;;;;;;;3.08;1.70;;;;;;;;;;5024994;28;20037;-65
2022/11/01 07:00:54;;;;;;;4.25;1.75;;;;;;;;;;5028061;28;20030;-65
2022/11/01 07:03:19;;;;;;;2.92;1.52;;;;;;;;;;5011931;28;20022;-65
2022/11/01 07:05:47;;;;;;;6.68;1.88;;;;;;;;;;5018209;28;20060;-65
2022/11/01 07:08:12;;;;;;;2.90;1.40;;;;;;;;;;5030655;28;20116;-64
2022/11/01 07:10:40;;;;;;;6.65;2.10;;;;;;;;;;5029928;28;20116;-63
2022/11/01 07:13:06;;;;;;;3.05;1.38;;;;;;;;;;5029814;28;20041;-63
2022/11/01 07:15:32;;;;;;;5.30;1.50;;;;;;;;;;5029802;28;20083;-64
2022/11/01 07:17:59;;;;;;;2.38;1.40;;;;;;;;;;5030780;28;20116;-64
2022/11/01 07:20:26;;;;;;;2.47;1.30;;;;;;;;;;5017767;28;20367;-65
2022/11/01 07:23:05;;;;;;;3.42;1.23;;;;;;;;;;5023470;28;20871;-64
2022/11/01 07:25:31;;;;;;;6.05;1.92;;;;;;;;;;5025030;28;20037;-63
2022/11/01 07:27:58;;;;;;;2.25;1.25;;;;;;;;;;5029183;28;20049;-65
2022/11/01 07:30:24;;;;;;;5.60;1.48;;;;;;;;;;5031132;28;20446;-65
2022/11/01 07:33:01;;;;;;;3.97;1.33;;;;;;;;;;5030429;28;20103;-64
2022/11/01 07:35:26;;;;;;;5.00;1.60;;;;;;;;;;5030409;28;20037;-65
2022/11/01 07:37:56;;;;;;;4.43;1.52;;;;;;;;;;5016168;28;20103;-64
2022/11/01 07:40:26;;;;;;;2.40;1.45;;;;;;;;;;5028550;28;20033;-65
2022/11/01 07:42:53;;;;;;;3.25;1.52;;;;;;;;;;5030015;28;20029;-64
2022/11/01 07:45:18;;;;;;;9.07;1.10;;;;;;;;;;5028996;28;20064;-64
2022/11/01 07:47:44;;;;;;;1.90;1.00;;;;;;;;;;5017956;28;20067;-64
2022/11/01 07:50:09;;;;;;;1.80;0.95;;;;;;;;;;5030824;28;20032;-63
2022/11/01 07:52:34;;;;;;;2.47;0.70;;;;;;;;;;5030046;28;20029;-65
2022/11/01 07:55:00;;;;;;;1.38;0.90;;;;;;;;;;5012725;28;20038;-64
2022/11/01 07:57:25;;;;;;;4.90;0.82;;;;;;;;;;5024314;28;20116;-64
2022/11/01 07:59:50;;;;;;;2.85;0.60;;;;;;;;;;5028501;28;20029;-63
2022/11/01 08:02:16;;;;;;;2.88;0.82;;;;;;;;;;5030603;28;20037;-64
2022/11/01 08:04:41;;;;;;;2.45;1.00;;;;;;;;;;5029677;28;20041;-64
2022/11/01 08:07:06;;;;;;;5.10;1.50;;;;;;;;;;5022498;28;20382;-65
2022/11/01 08:09:32;;;;;;;2.30;1.02;;;;;;;;;;5030812;28;20033;-63
2022/11/01 08:11:58;;;;;;;3.78;1.40;;;;;;;;;;5000459;28;20030;-64
2022/11/01 08:14:23;;;;;;;3.88;1.23;;;;;;;;;;5020770;28;20125;-66
2022/11/01 08:16:54;;;;;;;2.50;1.20;;;;;;;;;;5029334;28;20065;-66
2022/11/01 08:19:20;;;;;;;2.67;1.17;;;;;;;;;;5029355;28;20120;-66
2022/11/01 08:21:45;;;;;;;3.42;1.38;;;;;;;;;;5031805;28;20522;-66
2022/11/01 08:24:10;;;;;;;5.10;1.20;;;;;;;;;;5019551;28;20057;-66
2022/11/01 08:26:36;;;;;;;2.00;1.00;;;;;;;;;;5029357;28;20040;-65
2022/11/01 08:29:01;;;;;;;2.75;1.27;;;;;;;;;;5022488;28;20120;-64
2022/11/01 08:31:27;;;;;;;2.90;1.10;;;;;;;;;;5031626;28;20466;-64
2022/11/01 08:33:52;;;;;;;3.42;1.17;;;;;;;;;;5027388;28;20068;-64
2022/11/01 08:36:20;;;;;;;5.65;1.13;;;;;;;;;;5031398;28;20037;-64
2022/11/01 08:38:46;;;;;;;4.88;1.27;;;;;;;;;;5029249;28;20026;-65
2022/11/01 08:41:11;;;;;;;5.95;1.40;;;;;;;;;;5031713;28;20048;-64
2022/11/01 08:43:37;;;;;;;1.70;0.90;;;;;;;;;;5024617;28;20462;-64
2022/11/01 08:46:02;;;;;;;5.60;1.10;;;;;;;;;;5016117;28;20041;-64
2022/11/01 08:48:27;;;;;;;5.55;1.20;;;;;;;;;;5026841;28;20025;-64
2022/11/01 08:50:53;;;;;;;3.15;1.00;;;;;;;;;;5029063;28;20104;-64
2022/11/01 08:53:18;;;;;;;5.35;1.30;;;;;;;;;;5029495;28;20029;-64
2022/11/01 08:55:44;;;;;;;4.05;1.52;;;;;;;;;;5029336;28;20526;-64
2022/11/01 08:58:10;;;;;;;4.28;1.05;;;;;;;;;;5029161;28;20049;-64
2022/11/01 09:00:35;;;;;;;2.45;0.90;;;;;;;;;;5023234;28;20034;-65
2022/11/01 09:03:01;;;;;;;5.18;1.40;;;;;;;;;;5015181;28;20056;-64
2022/11/01 09:05:29;;;;;;;4.97;1.60;;;;;;;;;;5031452;28;20065;-64
2022/11/01 09:07:56;;;;;;;6.68;1.52;;;;;;;;;;5023105;28;20689;-64
2022/11/01 09:10:22;;;;;;;4.93;1.20;;;;;;;;;;5023764;28;20037;-63
2022/11/01 09:12:47;;;;;;;3.65;1.10;;;;;;;;;;5029007;28;20056;-63
2022/11/01 09:15:12;;;;;;;6.78;1.33;;;;;;;;;;5035096;28;20105;-64
2022/11/01 09:17:38;;;;;;;8.07;1.15;;;;;;;;;;5033308;28;20378;-64
2022/11/01 09:20:04;;;;;;;3.30;1.23;;;;;;;;;;5027310;28;20033;-63
2022/11/01 09:22:29;;;;;;;3.25;1.48;;;;;;;;;;5034375;28;20025;-65
2022/11/01 09:24:56;;;;;;;6.70;1.50;;;;;;;;;;5028539;28;20055;-64
2022/11/01 09:27:21;;;;;;;6.70;1.63;;;;;;;;;;5012506;28;20022;-64
2022/11/01 09:29:47;;;;;;;5.35;1.23;;;;;;;;;;5009147;28;20033;-64
2022/11/01 09:32:12;;;;;;;8.10;1.42;;;;;;;;;;5033774;28;20026;-65
2022/11/01 09:34:38;;;;;;;5.22;1.20;;;;;;;;;;5033108;28;20060;-63
2022/11/01 09:37:03;;;;;;;5.47;1.65;;;;;;;;;;5015656;28;20036;-64
2022/11/01 09:39:29;;;;;;;5.05;1.85;;;;;;;;;;5018530;28;20036;-64
2022/11/01 09:41:58;;;;;;;11.20;1.55;;;;;;;;;;5016320;28;20026;-64
2022/11/01 09:44:38;;;;;;;9.20;1.77;;;;;;;;;;5008320;28;20112;-64
2022/11/01 09:47:07;;;;;;;6.47;1.50;;;;;;;;;;5013969;28;20030;-64
2022/11/01 09:49:37;;;;;;;9.45;1.48;;;;;;;;;;5020274;28;20030;-64
2022/11/01 09:52:04;;;;;;;9.77;1.80;;;;;;;;;;5032604;28;20040;-63
2022/11/01 09:54:30;;;;;;;5.68;1.27;;;;;;;;;;5027053;28;20314;-64
2022/11/01 09:57:07;;;;;;;11.65;2.35;;;;;;;;;;5010823;28;20390;-65
2022/11/01 09:59:44;;;;;;;7.72;1.50;;;;;;;;;;5028479;28;20032;-65
2022/11/01 10:02:53;;;;;;;13.57;1.75;;;;;;;;;;4994254;28;20136;-64
2022/11/01 10:05:27;;;;;;;6.82;1.50;;;;;;;;;;5025263;28;20406;-64
2022/11/01 10:08:02;;;;;;;10.50;1.67;;;;;;;;;;5029543;28;20042;-64
2022/11/01 10:10:51;;;;;;;6.35;1.27;;;;;;;;;;5023782;28;20037;-65
2022/11/01 10:13:35;;;;;;;5.93;1.35;;;;;;;;;;5013665;28;20092;-65
2022/11/01 10:16:08;;;;;;;11.90;2.03;;;;;;;;;;5017924;28;20053;-65
2022/11/01 10:18:45;;;;;;;5.43;1.50;;;;;;;;;;5016908;28;20100;-65
2022/11/01 10:21:15;;;;;;;9.70;1.77;;;;;;;;;;5027869;28;20037;-64
2022/11/01 10:23:49;;;;;;;7.38;1.42;;;;;;;;;;5032915;28;20117;-65
2022/11/01 10:26:20;;;;;;;9.77;1.67;;;;;;;;;;5026971;28;20498;-64
2022/11/01 10:28:55;;;;;;;7.30;1.50;;;;;;;;;;4993202;28;20041;-64
2022/11/01 10:31:24;;;;;;;5.53;1.27;;;;;;;;;;5028431;28;20056;-64
2022/11/01 10:33:57;;;;;;;7.63;1.50;;;;;;;;;;5026778;28;20450;-63
2022/11/01 10:36:31;;;;;;;10.80;1.95;;;;;;;;;;5031053;28;20037;-64
2022/11/01 10:38:59;;;;;;;8.63;1.20;;;;;;;;;;5032634;28;20036;-64
2022/11/01 10:41:34;;;;;;;7.40;1.60;;;;;;;;;;5025255;28;20497;-63
2022/11/01 10:44:04;;;;;;;6.95;1.73;;;;;;;;;;5000491;28;20050;-63
2022/11/01 10:46:42;;;;;;;7.50;1.60;;;;;;;;;;5026593;28;20251;-64
2022/11/01 10:49:25;;;;;;;7.97;1.48;;;;;;;;;;5024013;28;20068;-64
2022/11/01 10:52:00;;;;;;;6.00;1.17;;;;;;;;;;5032296;28;20076;-64
2022/11/01 10:54:30;;;;;;;6.93;1.60;;;;;;;;;;5029648;28;20382;-64
2022/11/01 10:57:00;;;;;;;7.40;2.13;;;;;;;;;;5031111;28;20033;-64
2022/11/01 10:59:45;;;;;;;5.63;1.35;;;;;;;;;;5033380;28;20034;-65
2022/11/01 11:02:33;;;;;;;9.45;1.67;;;;;;;;;;5016025;28;20034;-65
2022/11/01 11:04:58;;;;;;;10.90;1.63;;;;;;;;;;5015506;28;20549;-65
2022/11/01 11:07:28;;;;;;;5.68;1.40;;;;;;;;;;5031048;28;20033;-64
2022/11/01 11:09:54;;;;;;;4.78;1.20;;;;;;;;;;5029094;28;20057;-64
2022/11/01 11:12:22;;;;;;;7.60;1.40;;;;;;;;;;5017427;28;20072;-63
2022/11/01 11:14:55;;;;;;;7.05;1.40;;;;;;;;;;5030285;28;20041;-63
2022/11/01 11:17:24;;;;;;;7.43;1.50;;;;;;;;;;5009595;28;20434;-63
2022/11/01 11:19:52;;;;;;;9.57;1.17;;;;;;;;;;5028525;28;20108;-65
2022/11/01 11:22:22;;;;;;;8.57;1.38;;;;;;;;;;5030926;28;20038;-64
2022/11/01 11:24:51;;;;;;;8.73;2.03;;;;;;;;;;5023528;28;20454;-65
2022/11/01 11:27:27;;;;;;;9.02;1.60;;;;;;;;;;5028136;28;20470;-64
2022/11/01 11:29:56;;;;;;;6.13;1.40;;;;;;;;;;5002478;28;20068;-63
2022/11/01 11:32:29;;;;;;;7.28;1.40;;;;;;;;;;5026134;28;20555;-64
2022/11/01 11:35:04;;;;;;;7.80;1.50;;;;;;;;;;5011789;28;20037;-63
2022/11/01 11:37:33;;;;;;;3.45;1.30;;;;;;;;;;4997221;28;20109;-63
2022/11/01 11:40:18;;;;;;;11.82;1.50;;;;;;;;;;5019201;28;20363;-64
2022/11/01 11:42:48;;;;;;;5.25;1.33;;;;;;;;;;5031533;28;20431;-64
2022/11/01 11:45:28;;;;;;;8.60;1.73;;;;;;;;;;5021287;28;20030;-64
2022/11/01 11:47:56;;;;;;;5.07;1.20;;;;;;;;;;4998787;28;20072;-63
2022/11/01 11:50:31;;;;;;;7.68;1.70;;;;;;;;;;5014003;28;20497;-64
2022/11/01 11:53:06;;;;;;;5.90;1.40;;;;;;;;;;5014185;28;20041;-65
2022/11/01 11:55:37;;;;;;;8.25;1.67;;;;;;;;;;5007733;28;20723;-63
2022/11/01 11:58:04;;;;;;;7.72;1.90;;;;;;;;;;4994934;28;20080;-64
2022/11/01 12:00:33;;;;;;;4.75;1.27;;;;;;;;;;5010267;28;20041;-64
2022/11/01 12:03:04;;;;;;;5.20;1.40;;;;;;;;;;4996031;28;20034;-64
2022/11/01 12:05:33;;;;;;;6.10;1.65;;;;;;;;;;5002515;28;20029;-65
2022/11/01 12:07:58;;;;;;;5.93;1.50;;;;;;;;;;5001900;28;20184;-65
2022/11/01 12:10:39;;;;;;;5.47;1.38;;;;;;;;;;4992653;28;20540;-64
2022/11/01 12:13:36;;;;;;;6.28;1.48;;;;;;;;;;5013334;28;20037;-64
2022/11/01 12:16:07;;;;;;;7.68;1.80;;;;;;;;;;4994254;28;20045;-63
2022/11/01 12:18:32;;;;;;;;;;;;;;;;;;5012489;28;20034;-62
2022/11/01 12:20:58;;;;;;;7.13;1.70;;;;;;;;;;5003252;28;19920;-64
2022/11/01 12:23:39;;;;;;;4.97;1.30;;;;;;;;;;4991179;28;20054;-63
2022/11/01 12:26:10;;;;;;;4.63;1.42;;;;;;;;;;4990923;28;20038;-64
2022/11/01 12:28:41;;;;;;;12.93;1.80;;;;;;;;;;4996883;28;20034;-63
2022/11/01 12:31:26;;;;;;;7.32;1.55;;;;;;;;;;5000253;28;20483;-64
2022/11/01 12:33:58;;;;;;;7.50;1.75;;;;;;;;;;4991767;28;20043;-64
2022/11/01 12:36:29;;;;;;;12.65;1.73;;;;;;;;;;5001512;28;20057;-63
2022/11/01 12:39:06;;;;;;;9.98;1.95;;;;;;;;;;4991533;28;20034;-64
2022/11/01 12:41:50;;;;;;;8.10;1.70;;;;;;;;;;5007315;28;20056;-65
2022/11/01 12:44:33;;;;;;;5.80;1.70;;;;;;;;;;5013636;28;20030;-64
2022/11/01 12:47:03;;;;;;;3.90;1.63;;;;;;;;;;5014658;28;20034;-64
2022/11/01 12:49:31;;;;;;;5.97;1.55;;;;;;;;;;5027865;28;20043;-64
2022/11/01 12:52:05;;;;;;;5.30;1.38;;;;;;;;;;5015484;28;20035;-63
2022/11/01 12:54:39;;;;;;;9.25;1.75;;;;;;;;;;5029553;28;20398;-64
2022/11/01 12:57:13;;;;;;;5.53;1.58;;;;;;;;;;5032121;28;20057;-65
2022/11/01 12:59:40;;;;;;;6.70;1.40;;;;;;;;;;5028618;28;20088;-63
2022/11/01 13:02:11;;;;;;;4.88;1.35;;;;;;;;;;5014921;28;20037;-64
2022/11/01 13:04:45;;;;;;;9.65;1.85;;;;;;;;;;5029867;28;20029;-63
2022/11/01 13:07:22;;;;;;;7.03;1.70;;;;;;;;;;5032089;28;20111;-64
2022/11/01 13:10:09;;;;;;;8.60;2.00;;;;;;;;;;5034223;28;20429;-64
2022/11/01 13:12:40;;;;;;;7.13;1.90;;;;;;;;;;5032677;28;20041;-63
2022/11/01 13:15:06;;;;;;;7.55;1.88;;;;;;;;;;5030289;28;20037;-63
2022/11/01 13:17:37;;;;;;;6.35;1.70;;;;;;;;;;5023451;28;20152;-63
2022/11/01 13:20:05;;;;;;;8.82;2.10;;;;;;;;;;5029914;28;20037;-62
2022/11/01 13:22:47;;;;;;;6.10;1.60;;;;;;;;;;5029795;28;20021;-63
2022/11/01 13:25:21;;;;;;;5.85;1.70;;;;;;;;;;4994141;28;20246;-63
2022/11/01 13:28:03;;;;;;;7.60;1.70;;;;;;;;;;5019521;28;20084;-63
2022/11/01 13:30:29;;;;;;;4.35;1.63;;;;;;;;;;5031322;28;20075;-63
2022/11/01 13:33:06;;;;;;;7.95;1.77;;;;;;;;;;5033881;28;20044;-63
2022/11/01 13:35:55;;;;;;;5.53;1.58;;;;;;;;;;5009313;28;20116;-63
2022/11/01 13:38:48;;;;;;;10.02;1.80;;;;;;;;;;5007298;28;20030;-64
2022/11/01 13:41:30;;;;;;;6.10;1.40;;;;;;;;;;5021334;28;20048;-62
2022/11/01 13:44:05;;;;;;;10.45;2.38;;;;;;;;;;5008237;28;20045;-62
2022/11/01 13:47:08;;;;;;;8.95;1.90;;;;;;;;;;5025595;28;20079;-62
2022/11/01 13:49:55;;;;;;;5.43;1.30;;;;;;;;;;5034747;28;20245;-62
2022/11/01 13:52:25;;;;;;;7.10;1.60;;;;;;;;;;5033820;28;20482;-63
2022/11/01 13:54:58;;;;;;;5.78;1.55;;;;;;;;;;5032652;28;20061;-62
2022/11/01 13:57:25;;;;;;;12.82;2.05;;;;;;;;;;5033657;28;20034;-62
2022/11/01 13:59:57;;;;;;;9.45;1.60;;;;;;;;;;5034178;28;20031;-62
2022/11/01 14:02:22;;;;;;;7.60;1.88;;;;;;;;;;5032317;28;20042;-62
2022/11/01 14:05:09;;;;;;;12.18;1.85;;;;;;;;;;5034389;28;20076;-62
2022/11/01 14:07:44;;;;;;;8.18;1.50;;;;;;;;;;5032989;28;20030;-63
2022/11/01 14:10:21;;;;;;;7.60;1.98;;;;;;;;;;5029101;28;20036;-63
2022/11/01 14:12:55;;;;;;;5.93;1.50;;;;;;;;;;5033740;28;20079;-63
2022/11/01 14:15:23;;;;;;;9.20;1.60;;;;;;;;;;5034096;28;20080;-63
2022/11/01 14:17:53;;;;;;;9.60;1.98;;;;;;;;;;5034003;28;20041;-62
2022/11/01 14:20:19;;;;;;;11.75;1.90;;;;;;;;;;5033057;28;20053;-63
2022/11/01 14:22:45;;;;;;;4.95;1.20;;;;;;;;;;5033262;28;20453;-62
2022/11/01 14:25:11;;;;;;;7.82;1.80;;;;;;;;;;5031256;28;20092;-62
2022/11/01 14:27:39;;;;;;;4.65;1.23;;;;;;;;;;5019536;28;20061;-62
2022/11/01 14:30:33;;;;;;;5.80;1.17;;;;;;;;;;5012999;28;20541;-63
2022/11/01 14:33:01;;;;;;;5.15;1.48;;;;;;;;;;5026894;28;20046;-62
2022/11/01 14:35:33;;;;;;;8.68;1.60;;;;;;;;;;5013426;28;20372;-63
2022/11/01 14:38:22;;;;;;;3.85;1.30;;;;;;;;;;5027233;28;20059;-62
2022/11/01 14:40:53;;;;;;;8.73;1.77;;;;;;;;;;5032800;28;20537;-62
2022/11/01 14:43:24;;;;;;;14.00;1.67;;;;;;;;;;5032385;28;20025;-63
2022/11/01 14:46:08;;;;;;;6.72;1.67;;;;;;;;;;5032962;28;20112;-63
2022/11/01 14:49:04;;;;;;;7.18;1.60;;;;;;;;;;5026897;28;20103;-63
2022/11/01 14:51:36;;;;;;;7.38;1.52;;;;;;;;;;5017890;28;20083;-62
2022/11/01 14:54:33;;;;;;;12.98;1.60;;;;;;;;;;5032474;28;20065;-62
2022/11/01 14:56:59;;;;;;;7.38;1.70;;;;;;;;;;5021662;28;20085;-62
2022/11/01 14:59:28;;;;;;;5.93;1.63;;;;;;;;;;5013495;28;20454;-61
2022/11/01 15:01:56;;;;;;;5.10;1.50;;;;;;;;;;5013201;28;20105;-63
2022/11/01 15:04:28;;;;;;;5.20;1.60;;;;;;;;;;5025403;28;20359;-62